Time;durP1;ratioP1;P1;durP2;ratioP2;P2;SDS_P1;SDS_P2;PMS_P1;PMS_P2;Temp;Humidity;BMP_temperature;BMP_pressure;BME280_temperature;BME280_humidity;BME280_pressure;Samples;Min_cycle;Max_cycle;Signal;HPM_P1;HPM_P2
2022/05/19 00:01:47;;;;;;;3.22;2.42;;;;;;;19.35;60.47;97000.53;10496257;28;20549;-19
2022/05/19 00:06:48;;;;;;;3.03;2.50;;;;;;;19.32;60.46;97004.78;10464331;28;20112;-19
2022/05/19 00:11:50;;;;;;;2.40;2.13;;;;;;;19.34;60.50;96993.78;10481870;28;20299;-22
2022/05/19 00:16:56;;;;;;;2.28;2.08;;;;;;;19.31;60.37;97003.06;10494088;28;20036;-20
2022/05/19 00:21:57;;;;;;;4.05;2.40;;;;;;;19.27;60.60;96997.16;10453423;28;20087;-20
2022/05/19 00:27:01;;;;;;;3.15;1.95;;;;;;;19.25;60.77;96995.47;10453101;28;20495;-21
2022/05/19 00:32:01;;;;;;;2.93;2.17;;;;;;;19.13;61.15;96990.34;10451838;28;20029;-22
2022/05/19 00:37:02;;;;;;;2.33;2.10;;;;;;;19.04;61.24;96991.19;10453241;28;20057;-20
2022/05/19 00:47:25;;;;;;;2.53;2.33;;;;;;;18.95;61.32;96988.63;10494601;28;20043;-20
2022/05/19 00:52:31;;;;;;;4.88;2.05;;;;;;;18.93;61.47;96986.91;10454071;28;20227;-19
2022/05/19 00:57:43;;;;;;;3.53;2.45;;;;;;;18.93;61.32;96979.31;10453373;28;20040;-21
2022/05/19 01:02:50;;;;;;;3.15;2.60;;;;;;;18.97;61.30;96971.72;10451940;28;20060;-20
2022/05/19 01:08:07;;;;;;;2.95;2.22;;;;;;;18.99;61.26;96974.25;10451824;28;20048;-20
2022/05/19 01:13:10;;;;;;;2.38;2.17;;;;;;;19.06;60.98;96970.84;10451664;28;20075;-20
2022/05/19 01:18:13;;;;;;;3.83;2.53;;;;;;;19.13;60.78;96970.03;10451209;28;20091;-20
2022/05/19 01:23:28;;;;;;;4.85;2.55;;;;;;;19.00;60.88;96971.69;10450861;28;20035;-21
2022/05/19 01:28:31;;;;;;;3.80;2.67;;;;;;;19.02;60.94;96975.06;10451322;28;20431;-20
2022/05/19 01:33:31;;;;;;;3.55;2.05;;;;;;;19.46;60.66;96977.72;10450435;28;20032;-20
2022/05/19 01:38:33;;;;;;;2.20;1.93;;;;;;;19.64;60.20;96977.69;10450712;28;20080;-20
2022/05/19 01:44:07;;;;;;;2.10;1.90;;;;;;;19.46;60.31;96965.00;10448915;28;20287;-19
2022/05/19 01:49:42;;;;;;;2.72;2.10;;;;;;;19.78;60.58;96961.63;10450482;28;20090;-19
2022/05/19 01:55:11;;;;;;;2.40;2.13;;;;;;;19.92;60.19;96951.44;10459389;28;20036;-18
2022/05/19 02:00:16;;;;;;;3.47;2.22;;;;;;;19.52;60.11;96952.31;10491179;28;20176;-21
2022/05/19 02:05:28;;;;;;;2.47;2.28;;;;;;;19.53;59.73;96959.09;10470795;28;20197;-20
2022/05/19 02:10:33;;;;;;;2.70;2.03;;;;;;;19.74;59.81;96959.06;10450142;28;20505;-21
2022/05/19 02:15:37;;;;;;;2.65;1.80;;;;;;;19.69;59.33;96960.78;10449535;28;20537;-20
2022/05/19 02:20:40;;;;;;;2.13;1.90;;;;;;;19.25;60.24;96978.53;10450023;28;20040;-20
2022/05/19 02:25:49;;;;;;;2.42;2.22;;;;;;;19.03;61.01;96991.16;10449910;28;20033;-20
2022/05/19 02:30:50;;;;;;;2.60;2.40;;;;;;;18.96;61.08;96985.25;10449733;28;20114;-20
2022/05/19 02:35:51;;;;;;;3.78;2.50;;;;;;;18.88;60.97;96986.91;10449576;28;20102;-21
2022/05/19 02:40:51;;;;;;;3.10;2.20;;;;;;;18.86;61.06;96988.59;10468783;28;20206;-21
2022/05/19 02:45:53;;;;;;;3.83;2.20;;;;;;;18.91;60.80;96994.50;10490375;28;20033;-21
2022/05/19 02:50:53;;;;;;;2.78;2.25;;;;;;;18.92;60.80;96992.84;10452491;28;20032;-21
2022/05/19 02:55:54;;;;;;;2.40;2.07;;;;;;;19.23;60.67;96987.00;10448294;28;20032;-20
2022/05/19 03:00:54;;;;;;;4.32;2.42;;;;;;;19.48;59.72;96976.00;10449656;28;20041;-20
2022/05/19 03:05:55;;;;;;;2.40;2.20;;;;;;;19.36;59.63;96976.00;10481087;28;20430;-20
2022/05/19 03:10:55;;;;;;;4.80;2.20;;;;;;;19.64;59.38;96972.63;10477038;28;20486;-20
2022/05/19 03:15:56;;;;;;;2.75;2.40;;;;;;;19.34;59.71;96972.63;10457100;28;20514;-21
2022/05/19 03:20:56;;;;;;;2.87;2.13;;;;;;;19.20;60.00;96989.53;10456707;28;20124;-21
2022/05/19 03:25:56;;;;;;;2.67;2.37;;;;;;;19.02;60.44;96989.47;10455931;28;20415;-21
2022/05/19 03:30:57;;;;;;;1.90;1.80;;;;;;;18.94;60.60;96992.00;10455569;28;20495;-20
2022/05/19 03:35:59;;;;;;;2.20;2.00;;;;;;;19.02;60.31;96990.31;10455556;28;20570;-20
2022/05/19 03:40:59;;;;;;;3.70;2.25;;;;;;;19.12;60.15;96993.72;10455288;28;20044;-20
2022/05/19 03:46:01;;;;;;;8.38;2.42;;;;;;;18.92;60.34;96987.75;10453953;28;20060;-21
2022/05/19 03:51:04;;;;;;;2.72;2.10;;;;;;;18.93;60.42;96999.59;10454477;28;20415;-20
2022/05/19 03:56:05;;;;;;;3.13;2.22;;;;;;;18.86;60.64;96997.88;10466424;28;20059;-21
2022/05/19 04:01:05;;;;;;;2.63;2.35;;;;;;;19.05;59.92;96995.41;10496781;28;20063;-20
2022/05/19 04:06:06;;;;;;;2.08;1.88;;;;;;;19.16;59.71;96992.91;10465707;28;20037;-20
2022/05/19 04:11:07;;;;;;;2.50;2.30;;;;;;;19.09;59.99;97001.34;10453388;28;20112;-20
2022/05/19 04:16:08;;;;;;;3.50;2.38;;;;;;;18.99;60.13;97014.84;10452867;28;20040;-21
2022/05/19 04:21:09;;;;;;;1.98;1.85;;;;;;;18.87;60.58;97010.59;10486050;28;20109;-19
2022/05/19 04:26:09;;;;;;;2.28;1.98;;;;;;;18.84;60.55;97017.34;10471334;28;20037;-23
2022/05/19 04:31:09;;;;;;;3.75;2.28;;;;;;;18.73;60.57;97011.34;10453944;28;20032;-23
2022/05/19 04:36:10;;;;;;;3.47;2.20;;;;;;;18.71;60.68;97013.06;10451680;28;20065;-20
2022/05/19 04:41:10;;;;;;;2.88;2.15;;;;;;;18.84;60.63;97030.03;10475343;28;20521;-20
2022/05/19 04:46:11;;;;;;;4.17;2.13;;;;;;;18.80;60.83;97029.16;10493605;28;20143;-21
2022/05/19 04:51:11;;;;;;;2.50;2.30;;;;;;;18.80;60.92;97028.31;10467645;28;20040;-20
2022/05/19 04:56:11;;;;;;;3.73;2.80;;;;;;;18.79;60.97;97030.00;10464122;28;20039;-20
2022/05/19 05:01:12;;;;;;;2.83;1.80;;;;;;;19.00;60.36;97031.78;10450944;28;20029;-22
2022/05/19 05:06:12;;;;;;;1.97;1.77;;;;;;;19.19;60.10;97043.69;10486462;28;20039;-22
2022/05/19 05:11:13;;;;;;;2.55;1.92;;;;;;;19.05;59.73;97040.22;10467046;28;20373;-21
2022/05/19 05:16:13;;;;;;;3.40;2.13;;;;;;;18.94;60.68;97059.66;10451377;28;20039;-21
2022/05/19 05:21:14;;;;;;;4.70;1.90;;;;;;;18.93;60.99;97047.81;10451403;28;20034;-21
2022/05/19 05:26:14;;;;;;;3.43;2.17;;;;;;;18.86;61.18;97053.69;10450711;28;20348;-20
2022/05/19 05:31:14;;;;;;;2.67;2.37;;;;;;;18.89;61.13;97058.78;10450077;28;20337;-21
2022/05/19 05:36:15;;;;;;;2.35;1.92;;;;;;;18.85;61.03;97064.69;10490102;28;20032;-20
2022/05/19 05:41:16;;;;;;;3.60;2.03;;;;;;;18.98;60.94;97068.94;10468086;28;20087;-21
2022/05/19 05:46:16;;;;;;;4.05;2.25;;;;;;;18.95;61.02;97081.63;10448756;28;20037;-20
2022/05/19 05:51:17;;;;;;;3.28;2.08;;;;;;;18.95;60.97;97089.25;10449193;28;20610;-20
2022/05/19 05:56:22;;;;;;;3.08;2.30;;;;;;;18.99;60.94;97099.41;10450901;28;20036;-20
2022/05/19 06:01:23;;;;;;;2.50;2.03;;;;;;;19.30;60.22;97108.00;10450975;28;20068;-20
2022/05/19 06:06:25;;;;;;;3.50;2.22;;;;;;;19.22;60.51;97110.53;10450007;28;20040;-21
2022/05/19 06:11:25;;;;;;;2.28;2.08;;;;;;;19.22;60.21;97110.53;10449772;28;20082;-20
2022/05/19 06:16:26;;;;;;;3.33;2.20;;;;;;;19.22;60.31;97114.75;10451573;28;20102;-22
2022/05/19 06:21:26;;;;;;;2.77;2.00;;;;;;;19.18;60.49;97108.78;10491468;28;20406;-20
2022/05/19 06:26:27;;;;;;;22.27;4.38;;;;;;;19.33;60.94;97108.03;10465466;28;20590;-19
2022/05/19 06:31:27;;;;;;;4.53;2.45;;;;;;;19.45;60.45;97098.75;10449859;28;20483;-20
2022/05/19 06:36:28;;;;;;;4.07;2.30;;;;;;;19.78;61.30;97113.19;10447999;28;20040;-20
2022/05/19 06:46:47;;;;;;;3.20;2.47;;;;;;;19.87;62.05;97111.53;10462883;28;20043;-20
2022/05/19 06:51:47;;;;;;;8.68;2.60;;;;;;;19.73;61.68;97115.75;10498718;28;20490;-20
2022/05/19 06:56:48;;;;;;;7.87;2.27;;;;;;;19.92;61.26;97117.44;10469150;28;20521;-20
2022/05/19 07:01:48;;;;;;;3.05;1.92;;;;;;;20.01;59.83;97121.69;10456686;28;20032;-20
2022/05/19 07:06:49;;;;;;;4.90;2.47;;;;;;;20.05;61.56;97113.25;10456169;28;20521;-19
2022/05/19 07:11:49;;;;;;;3.10;2.47;;;;;;;20.12;61.99;97120.03;10456248;28;20287;-20
2022/05/19 07:16:49;;;;;;;3.60;2.13;;;;;;;20.22;62.73;97126.81;10461975;28;20290;-20
2022/05/19 07:21:50;;;;;;;4.33;2.50;;;;;;;20.22;62.55;97119.16;10497377;28;20056;-19
2022/05/19 07:26:54;;;;;;;3.93;2.57;;;;;;;20.07;62.64;97111.53;10467971;28;20037;-20
2022/05/19 07:32:00;;;;;;;10.88;2.38;;;;;;;20.14;62.25;97120.88;10455990;28;20111;-20
2022/05/19 07:37:02;;;;;;;8.07;3.03;;;;;;;19.92;61.53;97129.31;10454453;28;20051;-20
2022/05/19 07:42:03;;;;;;;6.80;3.85;;;;;;;19.69;60.55;97138.59;10454250;28;20072;-20
2022/05/19 07:47:03;;;;;;;7.10;3.72;;;;;;;19.33;61.11;97130.91;10454039;28;20541;-20
2022/05/19 07:52:04;;;;;;;6.22;2.90;;;;;;;19.32;60.72;97141.88;10452453;28;20041;-20
2022/05/19 07:57:06;;;;;;;13.82;3.35;;;;;;;19.65;61.29;97147.03;10484006;28;20059;-20
2022/05/19 08:02:08;;;;;;;7.70;2.55;;;;;;;19.68;60.50;97130.13;10495345;28;20032;-20
2022/05/19 08:07:08;;;;;;;7.57;2.45;;;;;;;19.93;62.16;97148.81;10460810;28;20086;-20
2022/05/19 08:17:41;;;;;;;3.92;2.90;;;;;;;19.38;60.63;97139.34;10453814;28;20507;-21
2022/05/19 08:22:45;;;;;;;4.68;2.50;;;;;;;19.61;62.18;97150.44;10453760;28;20028;-20
2022/05/19 08:27:47;;;;;;;3.23;2.43;;;;;;;19.55;60.49;97150.41;10453586;28;20037;-20
2022/05/19 08:32:47;;;;;;;3.50;2.42;;;;;;;19.76;61.75;97145.38;10452805;28;20311;-20
2022/05/19 08:37:48;;;;;;;2.85;2.40;;;;;;;19.47;60.81;97152.06;10452446;28;20124;-20
2022/05/19 08:42:55;;;;;;;4.55;2.65;;;;;;;19.65;60.97;97152.13;10453420;28;20036;-20
2022/05/19 08:48:01;;;;;;;;;;;;;;;19.52;61.13;97146.16;10453687;28;20047;-21
2022/05/19 08:53:02;;;;;;;6.60;3.25;;;;;;;19.48;60.91;97146.16;10453017;28;19912;-20
2022/05/19 08:58:13;;;;;;;6.05;2.90;;;;;;;19.64;61.84;97142.81;10451910;28;20399;-21
2022/05/19 09:03:18;;;;;;;4.45;2.17;;;;;;;20.05;63.24;97143.75;10451802;28;20037;-20
2022/05/19 09:08:37;;;;;;;5.03;2.90;;;;;;;20.29;62.57;97136.13;10452359;28;20112;-20
2022/05/19 09:13:55;;;;;;;4.50;3.00;;;;;;;20.27;62.62;97136.13;10451192;28;20071;-20
2022/05/19 09:19:09;;;;;;;3.97;3.08;;;;;;;20.33;62.42;97122.56;10451302;28;20037;-19
2022/05/19 09:24:12;;;;;;;8.38;3.17;;;;;;;20.40;61.93;97127.66;10451221;28;20071;-19
2022/05/19 09:29:22;;;;;;;7.97;3.58;;;;;;;20.45;62.26;97121.69;10451665;28;20403;-19
2022/05/19 09:34:25;;;;;;;5.50;3.15;;;;;;;20.17;61.62;97115.81;10450855;28;20037;-19
2022/05/19 09:39:26;;;;;;;7.07;3.10;;;;;;;20.33;62.31;97104.78;10450475;28;20629;-19
2022/05/19 09:44:32;;;;;;;6.03;3.25;;;;;;;20.23;62.31;97103.06;10450058;28;20578;-19
2022/05/19 09:49:38;;;;;;;15.77;3.90;;;;;;;20.16;62.94;97103.91;10450009;28;20407;-19
2022/05/19 09:54:38;;;;;;;19.50;4.13;;;;;;;20.07;62.38;97107.31;10449517;28;20110;-19
2022/05/19 09:59:51;;;;;;;40.20;6.93;;;;;;;20.10;62.73;97101.41;10450900;28;20110;-19
2022/05/19 10:04:55;;;;;;;29.52;6.18;;;;;;;20.19;63.27;97096.31;10449781;28;20095;-19
2022/05/19 10:09:57;;;;;;;20.35;3.88;;;;;;;19.76;61.29;97099.66;10462005;28;20028;-19
2022/05/19 10:15:01;;;;;;;28.45;6.20;;;;;;;20.06;63.32;97090.38;10490842;28;20036;-19
2022/05/19 10:20:18;;;;;;;12.23;3.92;;;;;;;19.90;61.82;97080.16;10468690;28;20261;-17
2022/05/19 10:25:43;;;;;;;26.25;4.25;;;;;;;20.00;61.48;97086.97;10464310;28;20041;-19
2022/05/19 10:31:13;;;;;;;8.18;3.92;;;;;;;19.69;61.10;97077.63;10491392;28;20050;-19
2022/05/19 10:36:35;;;;;;;46.83;7.78;;;;;;;20.14;62.55;97072.56;10455101;28;20045;-19
2022/05/19 10:42:15;;;;;;;41.85;7.10;;;;;;;20.24;62.08;97059.00;10474987;28;20044;-19
2022/05/19 10:47:40;;;;;;;10.73;3.95;;;;;;;19.85;61.44;97064.91;10479943;28;20033;-19
2022/05/19 10:53:00;;;;;;;8.18;3.20;;;;;;;19.67;61.20;97057.28;10450918;28;20029;-19
2022/05/19 10:58:10;;;;;;;10.27;4.03;;;;;;;19.63;61.34;97062.38;10451733;28;20033;-20
2022/05/19 11:03:23;;;;;;;10.45;3.30;;;;;;;19.73;61.27;97051.38;10448231;28;20037;-20
2022/05/19 11:08:27;;;;;;;14.23;4.18;;;;;;;19.88;61.94;97034.44;10447725;28;20492;-20
2022/05/19 11:14:00;;;;;;;7.22;3.75;;;;;;;19.99;61.06;97042.03;10447950;28;20033;-19
2022/05/19 11:19:12;;;;;;;9.20;3.40;;;;;;;19.80;61.03;97050.53;10448027;28;20041;-20
2022/05/19 11:26:23;;;;;;;6.18;3.42;;;;;;;19.85;62.01;97038.69;10453003;28;20032;-19
2022/05/19 11:30:07;;;;;;;5.82;3.00;;;;;;;19.81;61.10;97026.81;10494928;28;20032;-20
2022/05/19 11:35:22;;;;;;;7.32;2.85;;;;;;;19.96;62.87;97042.06;10481181;28;20078;-19
2022/05/19 11:40:43;;;;;;;5.97;3.53;;;;;;;20.18;62.97;97028.50;10455222;28;20051;-20
2022/05/19 11:45:59;;;;;;;7.78;3.90;;;;;;;20.37;62.87;97040.34;10454718;28;20037;-21
2022/05/19 11:56:41;;;;;;;5.63;3.33;;;;;;;19.91;61.79;97038.69;10454360;28;20037;-20
2022/05/19 12:01:49;;;;;;;5.22;3.30;;;;;;;20.07;61.85;97040.38;10453885;28;20037;-18
2022/05/19 12:06:59;;;;;;;5.05;3.28;;;;;;;19.98;61.20;97045.44;10453978;28;20041;-20
2022/05/19 12:12:15;;;;;;;6.70;3.13;;;;;;;19.88;61.91;97043.75;10453581;28;20036;-19
2022/05/19 12:17:35;;;;;;;6.32;3.60;;;;;;;19.83;61.34;97040.38;10454368;28;20028;-19
2022/05/19 12:22:47;;;;;;;10.30;4.38;;;;;;;19.70;61.60;97041.22;10456747;28;20049;-20
2022/05/19 12:27:56;;;;;;;4.68;2.80;;;;;;;19.70;61.62;97044.63;10453498;28;20078;-20
2022/05/19 12:33:22;;;;;;;5.82;2.67;;;;;;;19.55;62.45;97044.59;10453867;28;20045;-20
2022/05/19 12:38:49;;;;;;;3.85;3.45;;;;;;;19.56;62.50;97043.75;10451703;28;20315;-21
2022/05/19 12:43:51;;;;;;;5.18;3.40;;;;;;;19.66;62.42;97037.00;10453462;28;20029;-20
2022/05/19 12:49:18;;;;;;;6.13;3.70;;;;;;;19.55;62.72;97038.66;10452930;28;20044;-20
2022/05/19 12:54:20;;;;;;;;;;;;;;;19.79;62.40;97043.75;10459593;28;20033;-19
2022/05/19 12:59:23;;;;;;;6.20;3.17;;;;;;;19.79;62.25;97048.84;10493938;28;19928;-21
2022/05/19 13:04:27;;;;;;;4.85;3.38;;;;;;;19.68;62.47;97045.47;10466280;28;20033;-19
2022/05/19 13:09:34;;;;;;;5.75;3.53;;;;;;;19.52;62.56;97046.28;10452392;28;20044;-19
2022/05/19 13:14:42;;;;;;;4.32;3.17;;;;;;;19.49;62.66;97084.38;10452398;28;20110;-20
2022/05/19 13:19:42;;;;;;;5.82;3.97;;;;;;;19.56;63.31;97096.22;10479684;28;20064;-18
2022/05/19 13:24:46;;;;;;;5.25;4.18;;;;;;;19.52;63.22;97094.53;10481919;28;20064;-21
2022/05/19 13:35:33;;;;;;;4.07;3.45;;;;;;;19.47;63.45;97096.22;10482876;28;20033;-20
2022/05/19 13:40:36;;;;;;;5.85;3.88;;;;;;;19.56;63.35;97106.38;10474581;28;20519;-20
2022/05/19 13:45:45;;;;;;;7.28;3.72;;;;;;;19.53;63.31;97102.16;10452225;28;20072;-20
2022/05/19 13:50:48;;;;;;;5.90;4.38;;;;;;;19.61;63.23;97094.56;10477865;28;20035;-20
2022/05/19 13:55:58;;;;;;;7.22;4.30;;;;;;;19.56;63.48;97099.63;10473847;28;20052;-20
2022/05/19 14:00:59;;;;;;;6.45;3.58;;;;;;;19.51;63.62;97088.59;10452739;28;20041;-20
2022/05/19 14:06:00;;;;;;;7.03;4.68;;;;;;;19.49;63.85;97079.31;10452255;28;20055;-21
2022/05/19 14:11:01;;;;;;;6.25;4.20;;;;;;;19.57;63.64;97059.81;10452860;28;20044;-21
2022/05/19 14:16:04;;;;;;;7.43;4.32;;;;;;;19.69;63.21;97042.88;10451993;28;20479;-21
2022/05/19 14:21:12;;;;;;;3.63;3.20;;;;;;;19.87;63.69;97031.91;10452316;28;20513;-20
2022/05/19 14:26:17;;;;;;;6.22;3.92;;;;;;;20.08;64.08;97016.69;10451355;28;20455;-22
2022/05/19 14:31:48;;;;;;;6.28;3.88;;;;;;;20.21;64.20;97008.16;10451282;28;20040;-20
2022/05/19 14:37:16;;;;;;;3.72;3.13;;;;;;;20.31;63.96;97004.72;10451552;28;20029;-23
2022/05/19 14:47:52;;;;;;;4.18;3.67;;;;;;;20.17;63.69;97012.41;10454208;28;20112;-20
2022/05/19 14:52:59;;;;;;;6.25;3.53;;;;;;;20.07;62.81;97022.56;10491174;28;20060;-19
2022/05/19 14:58:03;;;;;;;4.68;3.40;;;;;;;20.22;63.83;97025.09;10452879;28;20060;-19
2022/05/19 15:03:05;;;;;;;5.32;3.70;;;;;;;20.18;64.13;97028.50;10454248;28;20047;-20
2022/05/19 15:08:09;;;;;;;5.18;3.70;;;;;;;20.34;64.20;97030.19;10456857;28;20509;-21
2022/05/19 15:13:11;;;;;;;4.72;3.55;;;;;;;19.96;62.97;97031.88;10455933;28;20035;-19
2022/05/19 15:18:14;;;;;;;4.35;3.60;;;;;;;20.24;64.13;97029.34;10457199;28;20033;-19
2022/05/19 15:23:16;;;;;;;7.25;3.90;;;;;;;20.26;63.66;97026.81;10456955;28;20115;-20
2022/05/19 15:28:18;;;;;;;5.80;3.47;;;;;;;20.21;63.67;97034.44;10495482;28;20046;-19
2022/05/19 15:33:18;;;;;;;5.57;3.30;;;;;;;19.90;62.80;97030.19;10481026;28;20085;-20
2022/05/19 15:38:19;;;;;;;3.88;3.45;;;;;;;20.10;63.47;97035.31;10455576;28;20625;-19
2022/05/19 15:43:20;;;;;;;7.10;3.53;;;;;;;19.66;61.88;97040.38;10495308;28;20081;-19
2022/05/19 15:48:21;;;;;;;4.57;3.05;;;;;;;19.63;61.73;97042.91;10486863;28;20064;-20
2022/05/19 15:53:22;;;;;;;5.30;2.80;;;;;;;19.55;61.61;97039.53;10453900;28;20029;-21
2022/05/19 15:58:30;;;;;;;3.13;2.45;;;;;;;19.62;60.88;97056.47;10454639;28;20038;-21
2022/05/19 16:03:32;;;;;;;4.75;3.00;;;;;;;19.57;61.16;97068.28;10453953;28;20044;-21
2022/05/19 16:08:34;;;;;;;6.78;2.97;;;;;;;19.57;60.84;97075.06;10454673;28;20522;-20
2022/05/19 16:13:40;;;;;;;5.60;2.50;;;;;;;19.59;60.71;97070.84;10453883;28;20056;-20
2022/05/19 16:18:41;;;;;;;5.13;2.70;;;;;;;19.64;61.30;97069.13;10454954;28;20033;-19
2022/05/19 16:23:41;;;;;;;4.53;2.58;;;;;;;19.79;60.44;97075.09;10453810;28;20037;-23
2022/05/19 16:28:42;;;;;;;3.07;2.33;;;;;;;19.81;60.92;97072.53;10453714;28;20033;-20
2022/05/19 16:33:42;;;;;;;3.20;2.40;;;;;;;19.67;60.49;97070.00;10453036;28;20295;-20
2022/05/19 16:38:43;;;;;;;7.23;3.33;;;;;;;19.66;59.90;97072.56;10453481;28;20118;-20
2022/05/19 16:43:48;;;;;;;3.60;2.72;;;;;;;19.63;60.45;97082.69;10453233;28;20294;-21
2022/05/19 16:48:50;;;;;;;3.30;2.60;;;;;;;19.63;60.50;97080.16;10461534;28;20025;-21
2022/05/19 16:59:09;;;;;;;3.88;2.80;;;;;;;19.84;61.83;97087.81;10450309;28;20052;-21
2022/05/19 17:04:10;;;;;;;6.05;2.78;;;;;;;19.98;64.29;97081.00;10458881;28;20044;-20
2022/05/19 17:09:10;;;;;;;8.18;2.70;;;;;;;20.22;64.28;97086.97;10452432;28;20029;-19
2022/05/19 17:14:10;;;;;;;11.93;3.20;;;;;;;20.39;64.25;97090.34;10451352;28;20087;-19
2022/05/19 17:19:11;;;;;;;6.35;2.83;;;;;;;20.52;63.46;97087.78;10451585;28;20033;-20
2022/05/19 17:24:11;;;;;;;6.23;2.50;;;;;;;20.62;63.46;97093.69;10452040;28;20040;-20
2022/05/19 17:29:12;;;;;;;5.20;2.93;;;;;;;20.65;63.73;97081.78;10452202;28;20025;-20
2022/05/19 17:34:12;;;;;;;9.40;3.25;;;;;;;20.68;63.70;97081.81;10464493;28;20301;-20
2022/05/19 17:39:13;;;;;;;9.93;3.20;;;;;;;20.75;63.59;97078.38;10484792;28;20308;-20
2022/05/19 17:44:13;;;;;;;10.27;3.07;;;;;;;20.77;63.78;97073.28;10450233;28;20657;-20
2022/05/19 17:49:16;;;;;;;8.00;2.87;;;;;;;20.70;63.73;97062.28;10450201;28;20036;-20
2022/05/19 17:54:16;;;;;;;8.75;3.42;;;;;;;20.77;63.76;97078.34;10456428;28;20032;-20
2022/05/19 17:59:18;;;;;;;5.40;3.63;;;;;;;20.76;64.01;97085.16;10491466;28;20402;-20
2022/05/19 18:04:19;;;;;;;5.95;3.58;;;;;;;20.71;63.83;97091.97;10468089;28;20029;-20
2022/05/19 18:09:19;;;;;;;10.70;2.78;;;;;;;20.71;63.91;97084.31;10449816;28;20061;-20
2022/05/19 18:19:38;;;;;;;7.22;3.00;;;;;;;20.78;64.37;97090.22;10449729;28;20403;-20
2022/05/19 18:24:39;;;;;;;11.30;3.43;;;;;;;20.78;64.39;97100.41;10449915;28;20090;-20
2022/05/19 18:29:40;;;;;;;9.98;4.05;;;;;;;20.77;64.21;97094.50;10450067;28;20185;-21
2022/05/19 18:34:40;;;;;;;8.50;3.97;;;;;;;20.71;64.34;97093.66;10449217;28;20165;-20
2022/05/19 18:39:41;;;;;;;8.90;3.30;;;;;;;20.62;64.27;97093.69;10456285;28;20666;-20
2022/05/19 18:44:52;;;;;;;5.68;2.83;;;;;;;20.65;64.35;97089.41;10457637;28;20442;-20
2022/05/19 18:49:53;;;;;;;5.88;2.50;;;;;;;20.55;64.39;97092.00;10457403;28;20132;-20
2022/05/19 18:55:00;;;;;;;4.38;2.80;;;;;;;20.57;64.35;97106.41;10485838;28;20174;-20
2022/05/19 19:00:01;;;;;;;6.88;2.70;;;;;;;20.36;63.64;97112.38;10457029;28;20040;-20
2022/05/19 19:05:02;;;;;;;4.70;2.60;;;;;;;20.47;62.62;97114.06;10463685;28;20028;-18
2022/05/19 19:10:04;;;;;;;9.93;3.42;;;;;;;20.54;62.06;97103.88;10473905;28;20036;-21
2022/05/19 19:15:05;;;;;;;4.75;2.40;;;;;;;20.37;62.75;97116.63;10475039;28;20112;-18
2022/05/19 19:20:06;;;;;;;3.38;2.28;;;;;;;20.22;62.43;97124.25;10489781;28;20098;-20
2022/05/19 19:25:07;;;;;;;5.15;2.35;;;;;;;20.09;62.71;97130.22;10479877;28;20028;-20
2022/05/19 19:30:09;;;;;;;2.47;2.20;;;;;;;19.99;62.11;97129.31;10483186;28;20025;-20
2022/05/19 19:35:11;;;;;;;5.47;2.20;;;;;;;19.98;61.97;97147.09;10470142;28;20119;-20
2022/05/19 19:40:17;;;;;;;3.25;2.50;;;;;;;19.87;61.90;97146.25;10473151;28;20465;-19
2022/05/19 19:45:18;;;;;;;2.58;1.80;;;;;;;19.81;62.03;97164.00;10477298;28;20082;-20
2022/05/19 19:55:39;;;;;;;7.68;2.45;;;;;;;19.74;62.87;97157.22;10467366;28;20154;-21
2022/05/19 20:00:39;;;;;;;2.35;2.10;;;;;;;19.76;62.40;97158.09;10467869;28;20043;-20
2022/05/19 20:05:39;;;;;;;2.83;2.40;;;;;;;19.74;62.10;97157.22;10471162;28;20093;-20
2022/05/19 20:10:41;;;;;;;2.63;2.05;;;;;;;19.77;62.28;97173.31;10471485;28;20025;-21
2022/05/19 20:15:42;;;;;;;3.50;2.08;;;;;;;19.75;62.27;97172.47;10469710;28;20089;-20
2022/05/19 20:20:43;;;;;;;5.18;2.70;;;;;;;19.86;62.79;97177.59;10465205;28;20103;-20
2022/05/19 20:25:43;;;;;;;2.53;2.10;;;;;;;19.82;61.70;97180.94;10451233;28;20260;-20
2022/05/19 20:30:46;;;;;;;2.67;2.45;;;;;;;19.74;62.12;97182.63;10475484;28;20102;-20
2022/05/19 20:35:47;;;;;;;6.13;2.33;;;;;;;20.08;62.22;97184.44;10492983;28;20553;-19
2022/05/19 20:40:48;;;;;;;2.78;2.25;;;;;;;20.14;61.61;97184.41;10474545;28;20064;-19
2022/05/19 20:45:48;;;;;;;3.22;2.22;;;;;;;19.93;61.71;97197.91;10452469;28;20036;-20
2022/05/19 20:50:50;;;;;;;3.63;2.23;;;;;;;19.89;61.71;97196.22;10452155;28;20037;-19
2022/05/19 20:55:50;;;;;;;2.83;2.05;;;;;;;19.90;61.81;97194.53;10452036;28;20126;-20
2022/05/19 21:00:50;;;;;;;2.40;2.07;;;;;;;19.71;61.81;97188.56;10451694;28;20122;-19
2022/05/19 21:05:51;;;;;;;4.50;2.27;;;;;;;19.71;61.72;97202.94;10451298;28;20037;-20
2022/05/19 21:10:51;;;;;;;2.63;2.42;;;;;;;19.72;62.01;97205.50;10470779;28;20103;-20
2022/05/19 21:15:51;;;;;;;3.10;2.28;;;;;;;19.67;62.17;97211.41;10493101;28;20559;-20
2022/05/19 21:20:54;;;;;;;5.23;2.57;;;;;;;19.77;62.46;97208.06;10471501;28;20044;-23
2022/05/19 21:25:54;;;;;;;2.53;2.33;;;;;;;20.17;62.24;97213.25;10471379;28;20378;-20
2022/05/19 21:30:55;;;;;;;2.90;2.25;;;;;;;20.35;62.74;97225.97;10468905;28;20112;-21
2022/05/19 21:35:56;;;;;;;2.35;2.15;;;;;;;20.42;64.30;97221.75;10450784;28;20037;-21
2022/05/19 21:40:56;;;;;;;2.38;2.17;;;;;;;19.94;61.62;97219.09;10450657;28;20560;-20
2022/05/19 21:45:58;;;;;;;3.75;2.42;;;;;;;19.79;61.75;97216.53;10449995;28;20114;-19
2022/05/19 21:56:19;;;;;;;5.95;2.50;;;;;;;19.67;62.08;97202.09;10467805;28;20380;-20
2022/05/19 22:01:19;;;;;;;2.28;2.17;;;;;;;19.72;62.10;97207.19;10450207;28;20045;-20
2022/05/19 22:11:39;;;;;;;2.75;2.55;;;;;;;19.73;62.06;97216.50;10449962;28;20283;-20
2022/05/19 22:16:39;;;;;;;3.50;2.37;;;;;;;19.94;62.06;97217.41;10449498;28;20041;-19
2022/05/19 22:21:40;;;;;;;2.70;2.50;;;;;;;20.00;61.50;97221.69;10449802;28;20299;-19
2022/05/19 22:26:41;;;;;;;3.15;2.50;;;;;;;19.89;61.66;97219.09;10456918;28;20032;-20
2022/05/19 22:31:41;;;;;;;3.60;2.57;;;;;;;19.73;61.74;97221.56;10478469;28;20040;-20
2022/05/19 22:36:41;;;;;;;4.13;2.30;;;;;;;19.70;61.89;97222.44;10489614;28;20313;-21
2022/05/19 22:41:42;;;;;;;4.13;2.73;;;;;;;19.60;62.24;97228.31;10464602;28;20291;-19
2022/05/19 22:52:01;;;;;;;3.03;2.72;;;;;;;19.71;62.04;97229.22;10449126;28;20322;-23
2022/05/19 22:57:03;;;;;;;2.53;2.33;;;;;;;19.82;63.08;97236.84;10448553;28;20059;-20
2022/05/19 23:02:05;;;;;;;2.83;2.40;;;;;;;19.96;62.83;97230.97;10448825;28;20045;-20
2022/05/19 23:07:05;;;;;;;2.17;2.00;;;;;;;20.17;61.94;97225.13;10449210;28;20032;-20
2022/05/19 23:12:06;;;;;;;3.17;1.98;;;;;;;20.32;63.39;97228.53;10448671;28;20662;-20
2022/05/19 23:17:07;;;;;;;3.38;2.45;;;;;;;20.21;61.95;97229.34;10449501;28;20071;-20
2022/05/19 23:22:07;;;;;;;3.10;2.35;;;;;;;19.88;61.74;97227.56;10485224;28;20061;-20
2022/05/19 23:27:08;;;;;;;3.42;2.85;;;;;;;19.72;61.56;97237.66;10466462;28;20029;-21
2022/05/19 23:37:27;;;;;;;3.33;2.85;;;;;;;19.71;61.84;97229.22;10455772;28;20295;-20
2022/05/19 23:42:28;;;;;;;3.20;2.43;;;;;;;19.65;61.82;97224.09;10455440;28;20032;-20
2022/05/19 23:47:29;;;;;;;2.88;2.25;;;;;;;19.55;62.11;97217.31;10455522;28;20284;-20
2022/05/19 23:52:29;;;;;;;3.03;2.72;;;;;;;19.70;61.83;97222.44;10455710;28;20033;-20
2022/05/19 23:57:29;;;;;;;4.10;2.90;;;;;;;19.85;62.22;97216.56;10455683;28;20541;-22
